createdAt,value
2019-04-23T00:02:46.142Z,58.50
2019-04-23T00:05:08.157Z,58.70
2019-04-23T00:15:30.436Z,58.90
2019-04-23T00:17:47.860Z,59.10
2019-04-23T00:20:22.035Z,59.20
2019-04-23T00:23:11.066Z,59.30
2019-04-23T00:25:55.947Z,59.50
2019-04-23T00:28:31.796Z,59.70
2019-04-23T00:33:29.595Z,60.00
2019-04-23T00:36:02.647Z,60.10
2019-04-23T00:38:38.954Z,59.90
2019-04-23T00:41:09.323Z,59.90
2019-04-23T00:43:43.299Z,60.20
2019-04-23T00:46:16.360Z,60.50
2019-04-23T00:48:52.186Z,60.80
2019-04-23T00:51:18.568Z,60.80
2019-04-23T00:53:51.357Z,60.50
2019-04-23T00:56:38.258Z,60.80
2019-04-23T00:59:21.286Z,61.00
2019-04-23T01:01:36.853Z,61.10
2019-04-23T01:04:07.214Z,60.90
2019-04-23T01:06:29.163Z,61.00
2019-04-23T01:09:26.072Z,61.30
2019-04-23T01:11:39.314Z,61.60
2019-04-23T01:14:13.424Z,61.20
2019-04-23T01:17:04.811Z,61.60
2019-04-23T01:19:31.665Z,61.50
2019-04-23T01:21:43.372Z,61.60
2019-04-23T01:24:36.261Z,62.20
2019-04-23T01:37:54.778Z,62.70
2019-04-23T01:40:28.830Z,63.40
2019-04-23T01:47:54.764Z,63.50
2019-04-23T01:50:34.519Z,63.70
2019-04-23T01:55:33.070Z,63.70
2019-04-23T01:58:23.876Z,63.70
2019-04-23T02:00:45.190Z,63.80
2019-04-23T02:08:13.954Z,64.00
2019-04-23T02:10:56.282Z,64.30
2019-04-23T02:13:22.289Z,65.00
2019-04-23T02:15:53.407Z,64.90
2019-04-23T02:18:43.199Z,65.20
2019-04-23T02:21:15.482Z,65.20
2019-04-23T02:23:44.435Z,65.30
2019-04-23T02:26:12.869Z,65.40
2019-04-23T02:28:53.219Z,65.40
2019-04-23T02:31:52.874Z,65.40
2019-04-23T02:34:00.494Z,65.90
2019-04-23T02:39:02.836Z,66.00
2019-04-23T02:41:46.351Z,66.00
2019-04-23T02:46:43.580Z,66.40
2019-04-23T02:49:17.762Z,66.10
2019-04-23T02:51:51.026Z,66.30
2019-04-23T02:54:48.340Z,66.40
2019-04-23T02:56:51.228Z,66.80
2019-04-23T02:59:44.587Z,66.30
2019-04-23T03:02:15.499Z,66.40
2019-04-23T03:04:35.105Z,66.40
2019-04-23T03:09:45.667Z,67.00
2019-04-23T03:14:56.119Z,67.10
2019-04-23T03:17:15.092Z,67.40
2019-04-23T03:20:10.632Z,67.10
2019-04-23T03:23:03.138Z,67.50
2019-04-23T03:28:15.901Z,67.30
2019-04-23T03:38:39.437Z,67.70
2019-04-23T03:41:07.089Z,67.90
2019-04-23T03:51:09.645Z,68.50
2019-04-23T03:53:54.389Z,68.70
2019-04-23T03:58:47.433Z,68.70
2019-04-23T04:06:37.700Z,69.00
2019-04-23T04:09:06.132Z,69.10
2019-04-23T04:14:12.017Z,69.70
2019-04-23T04:16:51.731Z,69.30
2019-04-23T04:19:16.704Z,69.50
2019-04-23T04:21:39.811Z,69.60
2019-04-23T04:24:21.773Z,69.60
2019-04-23T04:26:50.972Z,69.60
2019-04-23T04:29:21.776Z,69.60
2019-04-23T04:31:54.725Z,69.30
2019-04-23T04:34:56.118Z,70.00
2019-04-23T04:37:28.115Z,69.40
2019-04-23T04:39:33.717Z,69.70
2019-04-23T04:42:09.295Z,69.70
2019-04-23T04:52:26.763Z,70.00
2019-04-23T04:54:30.828Z,70.10
2019-04-23T04:57:20.817Z,69.80
2019-04-23T05:02:39.123Z,69.90
2019-04-23T05:05:16.761Z,70.00
2019-04-23T05:10:09.384Z,70.40
2019-04-23T05:12:34.976Z,70.30
2019-04-23T05:15:23.207Z,70.50
2019-04-23T05:23:17.986Z,69.60
2019-04-23T05:25:32.674Z,70.00
2019-04-23T05:28:14.461Z,69.80
2019-04-23T05:30:46.382Z,69.90
2019-04-23T05:33:18.851Z,69.70
2019-04-23T05:36:14.111Z,69.90
2019-04-23T05:38:29.688Z,69.80
2019-04-23T05:40:53.675Z,69.80
2019-04-23T05:43:26.415Z,69.60
2019-04-23T05:45:59.721Z,69.50
2019-04-23T05:48:28.305Z,69.70
2019-04-23T05:51:04.625Z,69.50
2019-04-23T05:53:33.922Z,69.40
2019-04-23T05:58:43.723Z,69.30
2019-04-23T06:01:44.545Z,69.10
2019-04-23T06:04:03.977Z,68.60
2019-04-23T06:06:44.558Z,68.80
2019-04-23T06:08:59.742Z,68.60
2019-04-23T06:14:20.351Z,68.30
2019-04-23T06:19:14.152Z,68.10
2019-04-23T06:21:56.195Z,67.80
2019-04-23T06:24:23.888Z,67.80
2019-04-23T06:36:58.994Z,66.80
2019-04-23T06:39:36.965Z,66.90
2019-04-23T06:44:45.755Z,66.50
2019-04-23T06:47:16.647Z,66.60
2019-04-23T06:49:50.918Z,66.20
2019-04-23T06:57:25.846Z,66.10
2019-04-23T07:00:02.349Z,65.80
2019-04-23T07:02:33.781Z,64.90
2019-04-23T07:10:11.512Z,65.30
2019-04-23T07:12:50.523Z,64.50
2019-04-23T07:15:30.923Z,64.80
2019-04-23T07:17:39.684Z,64.40
2019-04-23T07:20:25.511Z,64.40
2019-04-23T07:22:57.063Z,62.80
2019-04-23T07:25:25.233Z,62.90
2019-04-23T07:27:56.915Z,63.20
2019-04-23T07:33:04.171Z,62.80
2019-04-23T07:35:41.923Z,62.00
2019-04-23T07:38:42.140Z,61.20
2019-04-23T07:41:30.301Z,61.00
2019-04-23T07:44:12.354Z,61.00
2019-04-23T07:47:11.630Z,60.20
2019-04-23T07:49:43.241Z,60.00
2019-04-23T07:52:11.025Z,59.40
2019-04-23T07:54:38.711Z,59.30
2019-04-23T07:57:15.255Z,58.50
2019-04-23T07:59:51.612Z,58.30
2019-04-23T08:02:19.391Z,58.00
2019-04-23T08:05:11.619Z,57.70
2019-04-23T08:07:22.897Z,57.00
2019-04-23T08:09:53.347Z,56.70
2019-04-23T08:12:42.265Z,56.00
2019-04-23T08:15:04.287Z,55.40
2019-04-23T08:17:30.611Z,54.90
2019-04-23T08:20:07.357Z,53.40
2019-04-23T08:22:40.766Z,53.60
2019-04-23T08:25:37.710Z,53.30
2019-04-23T08:28:13.469Z,52.40
2019-04-23T08:30:47.811Z,50.60
2019-04-23T08:33:17.568Z,50.80
2019-04-23T08:35:51.198Z,50.90
2019-04-23T08:38:25.873Z,48.20
2019-04-23T08:41:02.828Z,47.50
2019-04-23T08:43:42.718Z,46.30
2019-04-23T08:46:24.675Z,46.10
2019-04-23T08:51:39.002Z,45.00
2019-04-23T08:54:01.422Z,44.60
2019-04-23T08:56:34.759Z,44.20
2019-04-23T08:59:11.070Z,43.40
2019-04-23T09:01:36.091Z,42.30
2019-04-23T09:04:12.804Z,41.50
2019-04-23T09:06:34.904Z,41.10
2019-04-23T09:09:13.243Z,40.60
2019-04-23T09:14:05.592Z,39.50
2019-04-23T09:16:50.990Z,39.00
2019-04-23T09:19:23.847Z,38.60
2019-04-23T09:22:04.122Z,36.40
2019-04-23T09:24:29.560Z,37.90
2019-04-23T09:27:12.142Z,36.30
2019-04-23T09:29:42.388Z,36.90
2019-04-23T09:32:22.394Z,35.90
2019-04-23T09:38:04.157Z,34.90
2019-04-23T09:41:13.029Z,35.20
2019-04-23T09:43:47.153Z,34.90
2019-04-23T09:46:38.062Z,33.80
2019-04-23T09:49:28.920Z,33.40
2019-04-23T09:51:46.913Z,33.60
2019-04-23T09:54:18.170Z,32.40
2019-04-23T09:56:50.982Z,32.60
2019-04-23T09:59:23.466Z,31.90
2019-04-23T10:01:44.943Z,31.80
2019-04-23T10:04:13.517Z,30.60
2019-04-23T10:06:34.582Z,30.70
2019-04-23T10:09:06.678Z,28.10
2019-04-23T10:11:37.615Z,29.00
2019-04-23T10:14:10.573Z,27.50
2019-04-23T10:16:41.496Z,27.30
2019-04-23T10:19:15.074Z,25.00
2019-04-23T10:21:46.979Z,24.30
2019-04-23T10:24:19.154Z,22.80
2019-04-23T10:26:52.280Z,22.50
2019-04-23T10:29:27.722Z,20.60
2019-04-23T10:31:59.700Z,20.00
2019-04-23T10:34:47.827Z,19.20
2019-04-23T10:37:07.360Z,18.90
2019-04-23T10:39:42.731Z,19.10
2019-04-23T10:42:12.080Z,18.40
2019-04-23T10:45:17.951Z,18.40
2019-04-23T10:51:04.433Z,18.10
2019-04-23T10:54:03.415Z,17.70
2019-04-23T10:56:21.196Z,18.00
2019-04-23T11:01:21.344Z,17.90
2019-04-23T11:04:08.471Z,17.10
2019-04-23T11:06:32.415Z,16.80
2019-04-23T11:09:20.190Z,17.30
2019-04-23T11:11:46.999Z,17.30
2019-04-23T11:14:23.075Z,18.40
2019-04-23T11:19:25.722Z,17.50
2019-04-23T11:22:04.369Z,18.30
2019-04-23T11:26:57.482Z,18.00
2019-04-23T11:32:19.513Z,18.50
2019-04-23T11:34:57.364Z,18.40
2019-04-23T11:37:13.022Z,18.00
2019-04-23T11:39:49.628Z,18.40
2019-04-23T11:44:47.292Z,18.10
2019-04-23T11:47:56.878Z,18.40
2019-04-23T11:49:58.200Z,18.50
2019-04-23T11:52:36.418Z,18.80
2019-04-23T11:55:08.758Z,19.50
2019-04-23T12:00:05.955Z,20.80
2019-04-23T12:03:06.201Z,20.80
2019-04-23T12:06:20.848Z,21.90
2019-04-23T12:09:15.995Z,21.60
2019-04-23T12:14:42.072Z,22.70
2019-04-23T12:22:45.622Z,22.90
2019-04-23T12:25:06.502Z,22.80
2019-04-23T12:27:31.692Z,23.70
2019-04-23T12:30:00.770Z,22.80
2019-04-23T12:35:04.343Z,23.50
2019-04-23T12:37:52.092Z,23.40
2019-04-23T12:40:24.841Z,24.00
2019-04-23T12:43:13.264Z,24.20
2019-04-23T12:50:44.797Z,24.10
2019-04-23T12:53:10.202Z,24.30
2019-04-23T12:55:41.921Z,24.30
2019-04-23T13:00:52.882Z,24.00
2019-04-23T13:03:16.534Z,24.30
2019-04-23T13:05:38.924Z,24.90
2019-04-23T13:10:51.388Z,24.70
2019-04-23T13:16:07.357Z,25.10
2019-04-23T13:21:13.046Z,25.00
2019-04-23T13:26:04.254Z,25.20
2019-04-23T13:28:45.261Z,25.30
2019-04-23T13:31:15.039Z,25.50
2019-04-23T13:33:49.955Z,25.60
2019-04-23T13:36:32.772Z,25.90
2019-04-23T13:39:03.356Z,26.00
2019-04-23T13:41:42.071Z,26.30
2019-04-23T13:43:52.646Z,26.00
2019-04-23T13:46:41.926Z,26.00
2019-04-23T13:49:09.984Z,25.80
2019-04-23T13:51:39.975Z,26.00
2019-04-23T13:54:24.666Z,25.70
2019-04-23T13:57:27.090Z,25.70
2019-04-23T13:59:31.418Z,25.90
2019-04-23T14:01:58.015Z,25.90
2019-04-23T14:04:44.704Z,26.00
2019-04-23T14:07:10.260Z,26.20
2019-04-23T14:09:54.866Z,26.30
2019-04-23T14:12:20.429Z,26.30
2019-04-23T14:15:12.681Z,26.40
2019-04-23T14:19:59.889Z,25.90
2019-04-23T14:22:56.538Z,25.90
2019-04-23T14:27:39.371Z,26.10
2019-04-23T14:30:13.145Z,26.30
2019-04-23T14:32:35.375Z,26.20
2019-04-23T14:35:21.937Z,26.20
2019-04-23T14:38:07.322Z,26.30
2019-04-23T14:40:21.643Z,26.20
2019-04-23T14:42:56.177Z,26.40
2019-04-23T14:45:58.142Z,26.40
2019-04-23T14:48:08.874Z,26.30
2019-04-23T14:53:12.093Z,26.40
2019-04-23T14:58:31.053Z,26.50
2019-04-23T15:03:44.436Z,26.40
2019-04-23T15:06:13.377Z,26.40
2019-04-23T15:08:30.253Z,26.60
2019-04-23T15:11:18.750Z,26.50
2019-04-23T15:13:43.157Z,26.50
2019-04-23T15:16:39.781Z,26.50
2019-04-23T15:19:31.159Z,26.40
2019-04-23T15:21:47.174Z,26.30
2019-04-23T15:27:45.709Z,26.60
2019-04-23T15:28:49.107Z,26.20
2019-04-23T15:31:52.504Z,26.30
2019-04-23T15:34:13.786Z,26.30
2019-04-23T15:37:11.217Z,26.40
2019-04-23T15:39:24.378Z,26.40
2019-04-23T15:41:55.978Z,26.20
2019-04-23T15:44:16.416Z,26.20
2019-04-23T15:47:02.013Z,26.10
2019-04-23T15:49:26.890Z,26.10
2019-04-23T15:52:06.703Z,26.10
2019-04-23T15:59:45.120Z,26.10
2019-04-23T16:01:43.955Z,26.10
2019-04-23T16:04:19.210Z,26.30
2019-04-23T16:06:47.891Z,26.20
2019-04-23T16:09:45.283Z,26.00
2019-04-23T16:12:24.607Z,26.00
2019-04-23T16:15:05.831Z,26.00
2019-04-23T16:17:29.099Z,26.40
2019-04-23T16:20:29.571Z,26.20
2019-04-23T16:22:51.104Z,26.20
2019-04-23T16:25:22.239Z,26.30
2019-04-23T16:28:05.477Z,26.40
2019-04-23T16:30:32.938Z,26.60
2019-04-23T16:35:58.599Z,26.30
2019-04-23T16:38:40.838Z,26.30
2019-04-23T16:41:05.507Z,26.10
2019-04-23T16:43:36.655Z,26.60
2019-04-23T16:46:13.066Z,26.20
2019-04-23T16:48:51.179Z,26.40
2019-04-23T16:53:37.985Z,26.60
2019-04-23T16:56:30.583Z,26.30
2019-04-23T16:58:53.925Z,26.80
2019-04-23T17:01:35.402Z,26.50
2019-04-23T17:03:56.641Z,26.60
2019-04-23T17:09:01.788Z,26.60
2019-04-23T17:11:33.977Z,26.80
2019-04-23T17:14:10.145Z,26.70
2019-04-23T17:21:43.925Z,26.90
2019-04-23T17:27:08.459Z,27.10
2019-04-23T17:29:28.547Z,27.10
2019-04-23T17:32:11.677Z,27.80
2019-04-23T17:34:54.769Z,27.50
2019-04-23T17:37:26.803Z,27.30
2019-04-23T17:43:17.860Z,27.60
2019-04-23T17:45:32.085Z,27.40
2019-04-23T17:48:17.645Z,27.40
2019-04-23T17:53:25.248Z,27.90
2019-04-23T17:58:44.003Z,27.60
2019-04-23T18:04:08.445Z,28.00
2019-04-23T18:06:30.231Z,28.50
2019-04-23T18:11:26.846Z,28.90
2019-04-23T18:13:56.994Z,29.30
2019-04-23T18:16:35.367Z,29.00
2019-04-23T18:22:02.593Z,29.50
2019-04-23T18:24:54.172Z,29.60
2019-04-23T18:27:21.616Z,29.50
2019-04-23T18:35:24.347Z,30.30
2019-04-23T18:38:09.371Z,30.40
2019-04-23T18:40:40.414Z,30.00
2019-04-23T18:43:23.058Z,30.60
2019-04-23T18:53:44.878Z,31.70
2019-04-23T18:56:12.678Z,32.60
2019-04-23T19:01:22.856Z,31.80
2019-04-23T19:06:34.532Z,31.80
2019-04-23T19:09:23.445Z,32.10
2019-04-23T19:12:28.271Z,31.90
2019-04-23T19:19:58.200Z,33.40
2019-04-23T19:25:01.072Z,34.10
2019-04-23T19:30:22.368Z,34.80
2019-04-23T19:32:54.245Z,35.00
2019-04-23T19:35:44.191Z,35.10
2019-04-23T19:40:33.572Z,35.50
2019-04-23T19:45:43.484Z,35.30
2019-04-23T19:48:07.096Z,35.70
2019-04-23T19:50:51.967Z,35.70
2019-04-23T19:56:04.431Z,36.70
2019-04-23T19:58:33.581Z,36.30
2019-04-23T20:03:37.651Z,36.40
2019-04-23T20:06:14.978Z,36.50
2019-04-23T20:09:12.677Z,36.30
2019-04-23T20:11:07.722Z,36.10
2019-04-23T20:13:50.791Z,36.10
2019-04-23T20:16:19.575Z,35.40
2019-04-23T20:21:08.684Z,35.60
2019-04-23T20:24:04.878Z,35.70
2019-04-23T20:26:28.938Z,35.50
2019-04-23T20:29:19.485Z,35.60
2019-04-23T20:37:12.791Z,35.30
2019-04-23T20:42:11.977Z,35.30
2019-04-23T20:44:57.126Z,35.40
2019-04-23T20:52:32.043Z,35.40
2019-04-23T20:57:45.230Z,35.50
2019-04-23T21:00:12.779Z,35.70
2019-04-23T21:05:41.868Z,36.30
2019-04-23T21:08:27.695Z,36.00
2019-04-23T21:10:53.704Z,36.00
2019-04-23T21:15:58.027Z,36.30
2019-04-23T21:20:56.302Z,36.40
2019-04-23T21:23:37.608Z,37.00
2019-04-23T21:25:57.384Z,36.90
2019-04-23T21:33:59.286Z,37.50
2019-04-23T21:36:45.752Z,37.20
2019-04-23T21:40:19.552Z,37.70
2019-04-23T21:42:48.977Z,37.60
2019-04-23T21:45:06.455Z,38.10
2019-04-23T21:47:54.886Z,38.50
2019-04-23T21:50:20.103Z,39.10
2019-04-23T21:52:49.040Z,38.60
2019-04-23T21:55:20.478Z,38.70
2019-04-23T21:58:04.837Z,38.40
2019-04-23T22:00:24.276Z,39.00
2019-04-23T22:03:03.656Z,38.40
2019-04-23T22:05:40.071Z,39.20
2019-04-23T22:08:03.501Z,39.60
2019-04-23T22:10:45.821Z,40.30
2019-04-23T22:13:20.262Z,39.20
2019-04-23T22:15:53.490Z,39.90
2019-04-23T22:18:14.584Z,39.60
2019-04-23T22:20:55.906Z,40.40
2019-04-23T22:23:21.951Z,40.30
2019-04-23T22:26:04.414Z,40.60
2019-04-23T22:28:27.003Z,40.20
2019-04-23T22:36:06.251Z,40.50
2019-04-23T22:38:33.940Z,40.30
2019-04-23T22:43:49.042Z,40.40
2019-04-23T22:46:16.227Z,40.40
2019-04-23T22:48:57.595Z,41.00
2019-04-23T22:54:02.832Z,41.60
2019-04-23T22:56:25.881Z,42.10
2019-04-23T22:59:11.663Z,42.50
2019-04-23T23:01:49.065Z,42.80
2019-04-23T23:06:54.051Z,42.50
2019-04-23T23:09:34.242Z,43.40
2019-04-23T23:16:51.481Z,43.30
2019-04-23T23:19:29.578Z,43.30
2019-04-23T23:22:05.960Z,43.40
2019-04-23T23:24:27.042Z,43.90
2019-04-23T23:26:57.123Z,43.40
2019-04-23T23:29:41.958Z,43.20
2019-04-23T23:32:07.780Z,44.30
2019-04-23T23:35:02.665Z,43.40
2019-04-23T23:37:19.296Z,43.60
2019-04-23T23:39:58.326Z,43.60
2019-04-23T23:45:06.971Z,43.60
2019-04-23T23:47:38.895Z,43.70
2019-04-23T23:52:42.795Z,43.90
2019-04-23T23:55:12.782Z,44.30
2019-04-23T23:57:51.197Z,44.50
